sensor_id;sensor_type;location;lat;lon;timestamp;temperature;humidity
4081;DHT22;2055;50.074;8.436;2023-01-10T00:00:51;5.20;99.90
4081;DHT22;2055;50.074;8.436;2023-01-10T00:03:17;5.20;99.90
4081;DHT22;2055;50.074;8.436;2023-01-10T00:05:43;5.20;99.90
4081;DHT22;2055;50.074;8.436;2023-01-10T00:08:14;5.20;99.90
4081;DHT22;2055;50.074;8.436;2023-01-10T00:10:39;5.30;99.90
4081;DHT22;2055;50.074;8.436;2023-01-10T00:13:05;5.30;99.90
4081;DHT22;2055;50.074;8.436;2023-01-10T00:15:53;5.30;99.90
4081;DHT22;2055;50.074;8.436;2023-01-10T00:18:20;5.30;99.90
4081;DHT22;2055;50.074;8.436;2023-01-10T00:20:47;5.40;99.90
4081;DHT22;2055;50.074;8.436;2023-01-10T00:23:13;5.40;99.90
4081;DHT22;2055;50.074;8.436;2023-01-10T00:25:39;5.40;99.90
4081;DHT22;2055;50.074;8.436;2023-01-10T00:28:05;5.40;99.90
4081;DHT22;2055;50.074;8.436;2023-01-10T00:30:52;5.30;99.90
4081;DHT22;2055;50.074;8.436;2023-01-10T00:33:32;5.70;99.90
4081;DHT22;2055;50.074;8.436;2023-01-10T00:35:58;5.30;99.90
4081;DHT22;2055;50.074;8.436;2023-01-10T00:38:24;5.20;99.90
4081;DHT22;2055;50.074;8.436;2023-01-10T00:40:50;5.20;99.90
4081;DHT22;2055;50.074;8.436;2023-01-10T00:43:15;5.10;99.90
4081;DHT22;2055;50.074;8.436;2023-01-10T00:45:59;5.00;99.90
4081;DHT22;2055;50.074;8.436;2023-01-10T00:48:27;5.00;99.90
4081;DHT22;2055;50.074;8.436;2023-01-10T00:50:52;4.90;99.90
4081;DHT22;2055;50.074;8.436;2023-01-10T00:53:18;4.90;99.90
4081;DHT22;2055;50.074;8.436;2023-01-10T00:55:43;4.80;99.90
4081;DHT22;2055;50.074;8.436;2023-01-10T00:58:09;4.80;99.90
4081;DHT22;2055;50.074;8.436;2023-01-10T01:00:37;4.70;99.90
4081;DHT22;2055;50.074;8.436;2023-01-10T01:03:03;4.60;99.90
4081;DHT22;2055;50.074;8.436;2023-01-10T01:05:29;4.50;99.90
4081;DHT22;2055;50.074;8.436;2023-01-10T01:07:55;4.50;99.90
4081;DHT22;2055;50.074;8.436;2023-01-10T01:10:20;4.30;99.90
4081;DHT22;2055;50.074;8.436;2023-01-10T01:12:56;4.30;99.90
4081;DHT22;2055;50.074;8.436;2023-01-10T01:15:22;4.40;99.90
4081;DHT22;2055;50.074;8.436;2023-01-10T01:17:48;4.20;99.90
4081;DHT22;2055;50.074;8.436;2023-01-10T01:20:14;4.20;99.90
4081;DHT22;2055;50.074;8.436;2023-01-10T01:22:39;4.10;99.90
4081;DHT22;2055;50.074;8.436;2023-01-10T01:25:05;4.30;99.90
4081;DHT22;2055;50.074;8.436;2023-01-10T01:27:31;4.20;99.90
4081;DHT22;2055;50.074;8.436;2023-01-10T01:29:57;4.20;99.90
4081;DHT22;2055;50.074;8.436;2023-01-10T01:32:23;4.30;99.90
4081;DHT22;2055;50.074;8.436;2023-01-10T01:34:48;4.30;99.90
4081;DHT22;2055;50.074;8.436;2023-01-10T01:37:14;4.40;99.90
4081;DHT22;2055;50.074;8.436;2023-01-10T01:39:40;4.60;99.90
4081;DHT22;2055;50.074;8.436;2023-01-10T01:42:11;4.60;99.90
4081;DHT22;2055;50.074;8.436;2023-01-10T01:44:44;4.70;99.90
4081;DHT22;2055;50.074;8.436;2023-01-10T01:47:24;5.00;99.90
4081;DHT22;2055;50.074;8.436;2023-01-10T01:49:50;4.80;99.90
4081;DHT22;2055;50.074;8.436;2023-01-10T01:52:22;4.90;99.90
4081;DHT22;2055;50.074;8.436;2023-01-10T01:54:51;4.90;99.90
4081;DHT22;2055;50.074;8.436;2023-01-10T01:57:20;5.00;99.90
4081;DHT22;2055;50.074;8.436;2023-01-10T01:59:50;5.00;99.90
4081;DHT22;2055;50.074;8.436;2023-01-10T02:02:33;5.10;99.90
4081;DHT22;2055;50.074;8.436;2023-01-10T02:05:04;5.00;99.90
4081;DHT22;2055;50.074;8.436;2023-01-10T02:07:34;5.00;99.90
4081;DHT22;2055;50.074;8.436;2023-01-10T02:10:24;5.10;99.90
4081;DHT22;2055;50.074;8.436;2023-01-10T02:12:53;5.00;99.90
4081;DHT22;2055;50.074;8.436;2023-01-10T02:15:20;5.00;99.90
4081;DHT22;2055;50.074;8.436;2023-01-10T02:17:48;5.00;99.90
4081;DHT22;2055;50.074;8.436;2023-01-10T02:20:14;5.00;99.90
4081;DHT22;2055;50.074;8.436;2023-01-10T02:23:09;5.00;99.90
4081;DHT22;2055;50.074;8.436;2023-01-10T02:26:02;4.90;99.90
4081;DHT22;2055;50.074;8.436;2023-01-10T02:29:07;4.90;99.90
4081;DHT22;2055;50.074;8.436;2023-01-10T02:40:12;4.70;99.90
4081;DHT22;2055;50.074;8.436;2023-01-10T02:42:54;4.70;99.90
4081;DHT22;2055;50.074;8.436;2023-01-10T02:45:33;4.70;99.90
4081;DHT22;2055;50.074;8.436;2023-01-10T02:47:59;4.50;99.90
4081;DHT22;2055;50.074;8.436;2023-01-10T02:50:30;4.50;99.90
4081;DHT22;2055;50.074;8.436;2023-01-10T02:53:06;4.20;99.90
4081;DHT22;2055;50.074;8.436;2023-01-10T03:01:21;4.50;99.90
4081;DHT22;2055;50.074;8.436;2023-01-10T03:06:57;4.50;99.90
4081;DHT22;2055;50.074;8.436;2023-01-10T03:09:34;4.40;99.90
4081;DHT22;2055;50.074;8.436;2023-01-10T03:12:17;4.70;99.90
4081;DHT22;2055;50.074;8.436;2023-01-10T03:14:46;4.60;99.90
4081;DHT22;2055;50.074;8.436;2023-01-10T03:17:12;4.50;99.90
4081;DHT22;2055;50.074;8.436;2023-01-10T03:19:51;4.50;99.90
4081;DHT22;2055;50.074;8.436;2023-01-10T03:22:18;4.40;99.90
4081;DHT22;2055;50.074;8.436;2023-01-10T03:24:48;4.30;99.90
4081;DHT22;2055;50.074;8.436;2023-01-10T03:27:18;4.30;99.90
4081;DHT22;2055;50.074;8.436;2023-01-10T03:29:50;4.20;99.90
4081;DHT22;2055;50.074;8.436;2023-01-10T03:32:21;4.10;99.90
4081;DHT22;2055;50.074;8.436;2023-01-10T03:34:48;3.90;99.90
4081;DHT22;2055;50.074;8.436;2023-01-10T03:37:25;3.90;99.90
4081;DHT22;2055;50.074;8.436;2023-01-10T03:40:03;3.60;99.90
4081;DHT22;2055;50.074;8.436;2023-01-10T03:42:53;3.60;99.90
4081;DHT22;2055;50.074;8.436;2023-01-10T03:45:44;3.60;99.90
4081;DHT22;2055;50.074;8.436;2023-01-10T03:48:14;3.60;99.90
4081;DHT22;2055;50.074;8.436;2023-01-10T03:50:42;3.70;99.90
4081;DHT22;2055;50.074;8.436;2023-01-10T03:53:10;3.80;99.90
4081;DHT22;2055;50.074;8.436;2023-01-10T03:55:37;3.80;99.90
4081;DHT22;2055;50.074;8.436;2023-01-10T03:58:05;3.90;99.90
4081;DHT22;2055;50.074;8.436;2023-01-10T04:00:31;4.00;99.90
4081;DHT22;2055;50.074;8.436;2023-01-10T04:02:57;4.00;99.90
4081;DHT22;2055;50.074;8.436;2023-01-10T04:05:24;4.10;99.90
4081;DHT22;2055;50.074;8.436;2023-01-10T04:07:49;4.10;99.90
4081;DHT22;2055;50.074;8.436;2023-01-10T04:10:15;4.20;99.90
4081;DHT22;2055;50.074;8.436;2023-01-10T04:12:40;4.10;99.90
4081;DHT22;2055;50.074;8.436;2023-01-10T04:15:06;4.20;99.90
4081;DHT22;2055;50.074;8.436;2023-01-10T04:17:32;4.20;99.90
4081;DHT22;2055;50.074;8.436;2023-01-10T04:19:57;4.20;99.90
4081;DHT22;2055;50.074;8.436;2023-01-10T04:22:23;4.20;99.90
4081;DHT22;2055;50.074;8.436;2023-01-10T04:24:48;4.40;99.90
4081;DHT22;2055;50.074;8.436;2023-01-10T04:27:16;4.30;99.90
4081;DHT22;2055;50.074;8.436;2023-01-10T04:29:42;4.30;99.90
4081;DHT22;2055;50.074;8.436;2023-01-10T04:32:07;4.60;99.90
4081;DHT22;2055;50.074;8.436;2023-01-10T04:34:33;4.40;99.90
4081;DHT22;2055;50.074;8.436;2023-01-10T04:37:10;4.50;99.90
4081;DHT22;2055;50.074;8.436;2023-01-10T04:39:36;4.50;99.90
4081;DHT22;2055;50.074;8.436;2023-01-10T04:42:02;4.50;99.90
4081;DHT22;2055;50.074;8.436;2023-01-10T04:44:27;4.40;99.90
4081;DHT22;2055;50.074;8.436;2023-01-10T04:46:53;4.70;99.90
4081;DHT22;2055;50.074;8.436;2023-01-10T04:49:18;4.40;99.90
4081;DHT22;2055;50.074;8.436;2023-01-10T04:51:44;4.50;99.90
4081;DHT22;2055;50.074;8.436;2023-01-10T04:54:09;4.50;99.90
4081;DHT22;2055;50.074;8.436;2023-01-10T04:56:35;4.50;99.90
4081;DHT22;2055;50.074;8.436;2023-01-10T04:59:00;4.50;99.90
4081;DHT22;2055;50.074;8.436;2023-01-10T05:01:26;4.50;99.90
4081;DHT22;2055;50.074;8.436;2023-01-10T05:03:53;4.50;99.90
4081;DHT22;2055;50.074;8.436;2023-01-10T05:06:21;4.60;99.90
4081;DHT22;2055;50.074;8.436;2023-01-10T05:08:47;4.60;99.90
4081;DHT22;2055;50.074;8.436;2023-01-10T05:11:13;4.60;99.90
4081;DHT22;2055;50.074;8.436;2023-01-10T05:13:39;4.70;99.90
4081;DHT22;2055;50.074;8.436;2023-01-10T05:16:05;4.70;99.90
4081;DHT22;2055;50.074;8.436;2023-01-10T05:18:30;4.70;99.90
4081;DHT22;2055;50.074;8.436;2023-01-10T05:21:05;4.70;99.90
4081;DHT22;2055;50.074;8.436;2023-01-10T05:23:31;4.70;99.90
4081;DHT22;2055;50.074;8.436;2023-01-10T05:25:56;4.70;99.90
4081;DHT22;2055;50.074;8.436;2023-01-10T05:28:22;4.70;99.90
4081;DHT22;2055;50.074;8.436;2023-01-10T05:30:48;4.70;99.90
4081;DHT22;2055;50.074;8.436;2023-01-10T05:33:14;4.60;99.90
4081;DHT22;2055;50.074;8.436;2023-01-10T05:35:39;4.60;99.90
4081;DHT22;2055;50.074;8.436;2023-01-10T05:38:05;4.60;99.90
4081;DHT22;2055;50.074;8.436;2023-01-10T05:40:30;4.80;99.90
4081;DHT22;2055;50.074;8.436;2023-01-10T05:42:56;4.40;99.90
4081;DHT22;2055;50.074;8.436;2023-01-10T05:45:22;4.40;99.90
4081;DHT22;2055;50.074;8.436;2023-01-10T05:47:47;4.40;99.90
4081;DHT22;2055;50.074;8.436;2023-01-10T05:50:13;4.30;99.90
4081;DHT22;2055;50.074;8.436;2023-01-10T05:52:38;4.20;99.90
4081;DHT22;2055;50.074;8.436;2023-01-10T05:55:04;4.00;99.90
4081;DHT22;2055;50.074;8.436;2023-01-10T05:57:30;3.90;99.90
4081;DHT22;2055;50.074;8.436;2023-01-10T05:59:55;3.80;99.90
4081;DHT22;2055;50.074;8.436;2023-01-10T06:02:21;3.70;99.90
4081;DHT22;2055;50.074;8.436;2023-01-10T06:04:47;3.60;99.90
4081;DHT22;2055;50.074;8.436;2023-01-10T06:07:12;3.60;99.90
4081;DHT22;2055;50.074;8.436;2023-01-10T06:09:38;3.90;99.90
4081;DHT22;2055;50.074;8.436;2023-01-10T06:12:04;3.70;99.90
4081;DHT22;2055;50.074;8.436;2023-01-10T06:14:29;3.60;99.90
4081;DHT22;2055;50.074;8.436;2023-01-10T06:16:55;3.60;99.90
4081;DHT22;2055;50.074;8.436;2023-01-10T06:19:20;4.00;99.90
4081;DHT22;2055;50.074;8.436;2023-01-10T06:21:46;3.70;99.90
4081;DHT22;2055;50.074;8.436;2023-01-10T06:24:11;3.90;99.90
4081;DHT22;2055;50.074;8.436;2023-01-10T06:26:37;4.30;99.90
4081;DHT22;2055;50.074;8.436;2023-01-10T06:29:02;4.00;99.90
4081;DHT22;2055;50.074;8.436;2023-01-10T06:31:28;3.90;99.90
4081;DHT22;2055;50.074;8.436;2023-01-10T06:33:53;4.00;99.90
4081;DHT22;2055;50.074;8.436;2023-01-10T06:36:19;3.70;99.90
4081;DHT22;2055;50.074;8.436;2023-01-10T06:38:45;3.50;99.90
4081;DHT22;2055;50.074;8.436;2023-01-10T06:41:11;3.40;99.90
4081;DHT22;2055;50.074;8.436;2023-01-10T06:43:44;3.30;99.90
4081;DHT22;2055;50.074;8.436;2023-01-10T06:46:11;3.30;99.90
4081;DHT22;2055;50.074;8.436;2023-01-10T06:48:37;3.40;99.90
4081;DHT22;2055;50.074;8.436;2023-01-10T06:51:04;3.40;99.90
4081;DHT22;2055;50.074;8.436;2023-01-10T06:53:30;3.40;99.90
4081;DHT22;2055;50.074;8.436;2023-01-10T06:55:56;3.30;99.90
4081;DHT22;2055;50.074;8.436;2023-01-10T06:58:23;3.20;99.90
4081;DHT22;2055;50.074;8.436;2023-01-10T07:00:49;3.00;99.90
4081;DHT22;2055;50.074;8.436;2023-01-10T07:03:15;2.90;99.90
4081;DHT22;2055;50.074;8.436;2023-01-10T07:05:40;2.80;99.90
4081;DHT22;2055;50.074;8.436;2023-01-10T07:08:06;2.70;99.90
4081;DHT22;2055;50.074;8.436;2023-01-10T07:10:31;2.60;99.90
4081;DHT22;2055;50.074;8.436;2023-01-10T07:12:57;2.80;99.90
4081;DHT22;2055;50.074;8.436;2023-01-10T07:15:24;2.90;99.90
4081;DHT22;2055;50.074;8.436;2023-01-10T07:17:50;3.20;99.90
4081;DHT22;2055;50.074;8.436;2023-01-10T07:20:16;2.90;99.90
4081;DHT22;2055;50.074;8.436;2023-01-10T07:22:42;2.80;99.90
4081;DHT22;2055;50.074;8.436;2023-01-10T07:25:07;2.80;99.90
4081;DHT22;2055;50.074;8.436;2023-01-10T07:27:33;2.70;99.90
4081;DHT22;2055;50.074;8.436;2023-01-10T07:29:59;2.70;99.90
4081;DHT22;2055;50.074;8.436;2023-01-10T07:32:25;3.10;99.90
4081;DHT22;2055;50.074;8.436;2023-01-10T07:34:51;2.80;99.90
4081;DHT22;2055;50.074;8.436;2023-01-10T07:37:16;2.90;99.90
4081;DHT22;2055;50.074;8.436;2023-01-10T07:39:42;2.70;99.90
4081;DHT22;2055;50.074;8.436;2023-01-10T07:42:11;2.70;99.90
4081;DHT22;2055;50.074;8.436;2023-01-10T07:44:36;2.90;99.90
4081;DHT22;2055;50.074;8.436;2023-01-10T07:47:02;3.00;99.90
4081;DHT22;2055;50.074;8.436;2023-01-10T07:49:27;3.10;99.90
4081;DHT22;2055;50.074;8.436;2023-01-10T07:51:53;3.20;99.90
4081;DHT22;2055;50.074;8.436;2023-01-10T07:54:19;3.30;99.90
4081;DHT22;2055;50.074;8.436;2023-01-10T07:56:44;3.30;99.90
4081;DHT22;2055;50.074;8.436;2023-01-10T07:59:12;3.40;99.90
4081;DHT22;2055;50.074;8.436;2023-01-10T08:01:37;3.40;99.90
4081;DHT22;2055;50.074;8.436;2023-01-10T08:04:03;3.40;99.90
4081;DHT22;2055;50.074;8.436;2023-01-10T08:06:28;3.60;99.90
4081;DHT22;2055;50.074;8.436;2023-01-10T08:08:54;3.70;99.90
4081;DHT22;2055;50.074;8.436;2023-01-10T08:11:19;4.10;99.90
4081;DHT22;2055;50.074;8.436;2023-01-10T08:13:45;3.90;99.90
4081;DHT22;2055;50.074;8.436;2023-01-10T08:16:10;3.80;99.90
4081;DHT22;2055;50.074;8.436;2023-01-10T08:18:36;4.10;99.90
4081;DHT22;2055;50.074;8.436;2023-01-10T08:21:03;4.20;99.90
4081;DHT22;2055;50.074;8.436;2023-01-10T08:23:29;4.20;99.90
4081;DHT22;2055;50.074;8.436;2023-01-10T08:25:57;4.30;99.90
4081;DHT22;2055;50.074;8.436;2023-01-10T08:28:23;4.40;99.90
4081;DHT22;2055;50.074;8.436;2023-01-10T08:30:48;4.50;99.90
4081;DHT22;2055;50.074;8.436;2023-01-10T08:33:20;4.60;99.90
4081;DHT22;2055;50.074;8.436;2023-01-10T08:35:45;4.60;99.90
4081;DHT22;2055;50.074;8.436;2023-01-10T08:38:11;4.50;99.90
4081;DHT22;2055;50.074;8.436;2023-01-10T08:40:36;4.40;99.90
4081;DHT22;2055;50.074;8.436;2023-01-10T08:43:05;4.50;99.90
4081;DHT22;2055;50.074;8.436;2023-01-10T08:45:32;4.50;99.90
4081;DHT22;2055;50.074;8.436;2023-01-10T08:47:57;4.60;99.90
4081;DHT22;2055;50.074;8.436;2023-01-10T08:50:24;4.70;99.90
4081;DHT22;2055;50.074;8.436;2023-01-10T08:52:50;4.80;99.90
4081;DHT22;2055;50.074;8.436;2023-01-10T08:55:16;4.90;99.90
4081;DHT22;2055;50.074;8.436;2023-01-10T08:57:42;5.00;99.90
4081;DHT22;2055;50.074;8.436;2023-01-10T09:00:08;5.10;99.90
4081;DHT22;2055;50.074;8.436;2023-01-10T09:02:37;5.20;99.90
4081;DHT22;2055;50.074;8.436;2023-01-10T09:05:03;5.40;99.90
4081;DHT22;2055;50.074;8.436;2023-01-10T09:07:29;5.50;99.90
4081;DHT22;2055;50.074;8.436;2023-01-10T09:09:54;5.50;99.90
4081;DHT22;2055;50.074;8.436;2023-01-10T09:12:20;5.50;99.90
4081;DHT22;2055;50.074;8.436;2023-01-10T09:15:28;5.60;99.90
4081;DHT22;2055;50.074;8.436;2023-01-10T09:17:56;5.60;99.90
4081;DHT22;2055;50.074;8.436;2023-01-10T09:20:23;5.60;99.90
4081;DHT22;2055;50.074;8.436;2023-01-10T09:22:49;5.70;99.90
4081;DHT22;2055;50.074;8.436;2023-01-10T09:25:15;6.30;99.90
4081;DHT22;2055;50.074;8.436;2023-01-10T09:27:40;6.00;99.90
4081;DHT22;2055;50.074;8.436;2023-01-10T09:30:06;6.10;99.90
4081;DHT22;2055;50.074;8.436;2023-01-10T09:32:32;6.20;99.90
4081;DHT22;2055;50.074;8.436;2023-01-10T09:34:57;6.30;99.90
4081;DHT22;2055;50.074;8.436;2023-01-10T09:37:23;6.40;99.90
4081;DHT22;2055;50.074;8.436;2023-01-10T09:39:49;6.40;99.90
4081;DHT22;2055;50.074;8.436;2023-01-10T09:48:07;6.50;99.90
4081;DHT22;2055;50.074;8.436;2023-01-10T09:53:18;6.50;99.90
4081;DHT22;2055;50.074;8.436;2023-01-10T09:55:49;6.60;99.90
4081;DHT22;2055;50.074;8.436;2023-01-10T09:58:17;6.70;99.90
4081;DHT22;2055;50.074;8.436;2023-01-10T10:00:57;6.70;99.90
4081;DHT22;2055;50.074;8.436;2023-01-10T10:03:38;6.80;99.90
4081;DHT22;2055;50.074;8.436;2023-01-10T10:06:11;6.80;99.90
4081;DHT22;2055;50.074;8.436;2023-01-10T10:08:41;6.90;99.90
4081;DHT22;2055;50.074;8.436;2023-01-10T10:14:10;7.00;99.90
4081;DHT22;2055;50.074;8.436;2023-01-10T10:19:22;6.90;99.90
4081;DHT22;2055;50.074;8.436;2023-01-10T10:22:27;7.00;99.90
4081;DHT22;2055;50.074;8.436;2023-01-10T10:25:24;7.20;99.90
4081;DHT22;2055;50.074;8.436;2023-01-10T10:30:45;7.20;99.90
4081;DHT22;2055;50.074;8.436;2023-01-10T10:33:48;7.10;99.90
4081;DHT22;2055;50.074;8.436;2023-01-10T10:38:51;7.20;99.90
4081;DHT22;2055;50.074;8.436;2023-01-10T10:41:39;7.20;99.90
4081;DHT22;2055;50.074;8.436;2023-01-10T10:44:31;7.20;99.90
4081;DHT22;2055;50.074;8.436;2023-01-10T10:46:58;7.20;99.90
4081;DHT22;2055;50.074;8.436;2023-01-10T10:49:42;7.30;99.90
4081;DHT22;2055;50.074;8.436;2023-01-10T10:52:38;7.30;99.90
4081;DHT22;2055;50.074;8.436;2023-01-10T10:55:06;7.40;99.90
4081;DHT22;2055;50.074;8.436;2023-01-10T10:57:34;7.30;99.90
4081;DHT22;2055;50.074;8.436;2023-01-10T11:00:03;7.30;99.90
4081;DHT22;2055;50.074;8.436;2023-01-10T11:02:31;7.40;99.90
4081;DHT22;2055;50.074;8.436;2023-01-10T11:04:59;7.30;99.90
4081;DHT22;2055;50.074;8.436;2023-01-10T11:07:30;7.40;99.90
4081;DHT22;2055;50.074;8.436;2023-01-10T11:09:57;7.40;99.90
4081;DHT22;2055;50.074;8.436;2023-01-10T11:12:40;7.30;99.90
4081;DHT22;2055;50.074;8.436;2023-01-10T11:15:10;7.30;99.90
4081;DHT22;2055;50.074;8.436;2023-01-10T11:17:35;7.30;99.90
4081;DHT22;2055;50.074;8.436;2023-01-10T11:20:15;7.30;99.90
4081;DHT22;2055;50.074;8.436;2023-01-10T11:22:48;7.40;99.90
4081;DHT22;2055;50.074;8.436;2023-01-10T11:25:16;7.40;99.90
4081;DHT22;2055;50.074;8.436;2023-01-10T11:27:49;7.40;99.90
4081;DHT22;2055;50.074;8.436;2023-01-10T11:30:22;7.40;99.90
4081;DHT22;2055;50.074;8.436;2023-01-10T11:35:20;7.40;99.90
4081;DHT22;2055;50.074;8.436;2023-01-10T11:38:02;7.40;99.90
4081;DHT22;2055;50.074;8.436;2023-01-10T11:40:32;7.50;99.90
4081;DHT22;2055;50.074;8.436;2023-01-10T11:42:59;7.40;99.90
4081;DHT22;2055;50.074;8.436;2023-01-10T11:45:32;7.40;99.90
4081;DHT22;2055;50.074;8.436;2023-01-10T11:48:08;7.50;99.90
4081;DHT22;2055;50.074;8.436;2023-01-10T11:50:40;7.30;99.90
4081;DHT22;2055;50.074;8.436;2023-01-10T11:53:28;7.30;99.90
4081;DHT22;2055;50.074;8.436;2023-01-10T11:55:55;7.30;99.90
4081;DHT22;2055;50.074;8.436;2023-01-10T11:58:20;7.40;99.90
4081;DHT22;2055;50.074;8.436;2023-01-10T12:00:47;7.50;99.90
4081;DHT22;2055;50.074;8.436;2023-01-10T12:03:34;7.60;99.90
4081;DHT22;2055;50.074;8.436;2023-01-10T12:06:14;7.60;99.90
4081;DHT22;2055;50.074;8.436;2023-01-10T12:08:40;7.70;99.90
4081;DHT22;2055;50.074;8.436;2023-01-10T12:13:51;7.90;99.90
4081;DHT22;2055;50.074;8.436;2023-01-10T12:16:31;8.10;99.90
4081;DHT22;2055;50.074;8.436;2023-01-10T12:18:59;8.20;99.90
4081;DHT22;2055;50.074;8.436;2023-01-10T12:24:00;7.90;99.90
4081;DHT22;2055;50.074;8.436;2023-01-10T12:26:29;7.90;99.90
4081;DHT22;2055;50.074;8.436;2023-01-10T12:29:00;7.80;99.90
4081;DHT22;2055;50.074;8.436;2023-01-10T12:31:29;7.70;99.90
4081;DHT22;2055;50.074;8.436;2023-01-10T12:34:00;7.70;99.90
4081;DHT22;2055;50.074;8.436;2023-01-10T12:39:26;8.00;99.90
4081;DHT22;2055;50.074;8.436;2023-01-10T12:42:11;7.70;99.90
4081;DHT22;2055;50.074;8.436;2023-01-10T12:45:22;7.60;99.90
4081;DHT22;2055;50.074;8.436;2023-01-10T12:55:43;7.40;99.90
4081;DHT22;2055;50.074;8.436;2023-01-10T12:58:17;7.40;99.90
4081;DHT22;2055;50.074;8.436;2023-01-10T13:00:51;7.50;99.90
4081;DHT22;2055;50.074;8.436;2023-01-10T13:03:19;7.50;99.90
4081;DHT22;2055;50.074;8.436;2023-01-10T13:05:47;7.50;99.90
4081;DHT22;2055;50.074;8.436;2023-01-10T13:08:16;7.50;99.90
4081;DHT22;2055;50.074;8.436;2023-01-10T13:10:49;7.50;99.90
4081;DHT22;2055;50.074;8.436;2023-01-10T13:13:44;7.50;99.90
4081;DHT22;2055;50.074;8.436;2023-01-10T13:19:24;7.50;99.90
4081;DHT22;2055;50.074;8.436;2023-01-10T13:21:54;7.40;99.90
4081;DHT22;2055;50.074;8.436;2023-01-10T13:24:35;7.40;99.90
4081;DHT22;2055;50.074;8.436;2023-01-10T13:27:02;7.40;99.90
4081;DHT22;2055;50.074;8.436;2023-01-10T13:29:30;7.40;99.90
4081;DHT22;2055;50.074;8.436;2023-01-10T13:31:58;7.30;99.90
4081;DHT22;2055;50.074;8.436;2023-01-10T13:34:31;7.30;99.90
4081;DHT22;2055;50.074;8.436;2023-01-10T13:37:22;7.30;99.90
4081;DHT22;2055;50.074;8.436;2023-01-10T13:39:56;7.30;99.90
4081;DHT22;2055;50.074;8.436;2023-01-10T13:42:31;7.20;99.90
4081;DHT22;2055;50.074;8.436;2023-01-10T13:45:28;7.20;99.90
4081;DHT22;2055;50.074;8.436;2023-01-10T14:03:39;7.10;99.90
4081;DHT22;2055;50.074;8.436;2023-01-10T14:06:19;7.10;99.90
4081;DHT22;2055;50.074;8.436;2023-01-10T14:08:51;7.10;99.90
4081;DHT22;2055;50.074;8.436;2023-01-10T14:11:17;7.10;99.90
4081;DHT22;2055;50.074;8.436;2023-01-10T14:13:50;7.10;99.90
4081;DHT22;2055;50.074;8.436;2023-01-10T14:16:30;7.10;99.90
4081;DHT22;2055;50.074;8.436;2023-01-10T14:18:57;7.10;99.90
4081;DHT22;2055;50.074;8.436;2023-01-10T14:21:24;7.10;99.90
4081;DHT22;2055;50.074;8.436;2023-01-10T14:23:53;7.10;99.90
4081;DHT22;2055;50.074;8.436;2023-01-10T14:26:31;7.10;99.90
4081;DHT22;2055;50.074;8.436;2023-01-10T14:29:06;7.10;99.90
4081;DHT22;2055;50.074;8.436;2023-01-10T14:31:33;7.10;99.90
4081;DHT22;2055;50.074;8.436;2023-01-10T14:34:01;7.10;99.90
4081;DHT22;2055;50.074;8.436;2023-01-10T14:36:32;7.10;99.90
4081;DHT22;2055;50.074;8.436;2023-01-10T14:39:04;7.10;99.90
4081;DHT22;2055;50.074;8.436;2023-01-10T14:41:35;7.10;99.90
4081;DHT22;2055;50.074;8.436;2023-01-10T14:44:23;7.10;99.90
4081;DHT22;2055;50.074;8.436;2023-01-10T14:46:53;7.00;99.90
4081;DHT22;2055;50.074;8.436;2023-01-10T14:49:22;7.00;99.90
4081;DHT22;2055;50.074;8.436;2023-01-10T14:51:48;7.00;99.90
4081;DHT22;2055;50.074;8.436;2023-01-10T14:54:18;7.00;99.90
4081;DHT22;2055;50.074;8.436;2023-01-10T14:56:51;7.00;99.90
4081;DHT22;2055;50.074;8.436;2023-01-10T14:59:31;7.00;99.90
4081;DHT22;2055;50.074;8.436;2023-01-10T15:02:00;7.00;99.90
4081;DHT22;2055;50.074;8.436;2023-01-10T15:04:31;6.90;99.90
4081;DHT22;2055;50.074;8.436;2023-01-10T15:07:00;6.90;99.90
4081;DHT22;2055;50.074;8.436;2023-01-10T15:09:28;6.90;99.90
4081;DHT22;2055;50.074;8.436;2023-01-10T15:11:55;6.90;99.90
4081;DHT22;2055;50.074;8.436;2023-01-10T15:14:22;6.90;99.90
4081;DHT22;2055;50.074;8.436;2023-01-10T15:16:53;6.80;99.90
4081;DHT22;2055;50.074;8.436;2023-01-10T15:19:21;6.80;99.90
4081;DHT22;2055;50.074;8.436;2023-01-10T15:21:48;6.80;99.90
4081;DHT22;2055;50.074;8.436;2023-01-10T15:24:34;6.80;99.90
4081;DHT22;2055;50.074;8.436;2023-01-10T15:27:12;6.80;99.90
4081;DHT22;2055;50.074;8.436;2023-01-10T15:29:39;6.80;99.90
4081;DHT22;2055;50.074;8.436;2023-01-10T15:32:30;6.70;99.90
4081;DHT22;2055;50.074;8.436;2023-01-10T15:34:57;6.70;99.90
4081;DHT22;2055;50.074;8.436;2023-01-10T15:37:31;6.70;99.90
4081;DHT22;2055;50.074;8.436;2023-01-10T15:40:01;6.80;99.90
4081;DHT22;2055;50.074;8.436;2023-01-10T15:42:27;6.70;99.90
4081;DHT22;2055;50.074;8.436;2023-01-10T15:44:53;6.70;99.90
4081;DHT22;2055;50.074;8.436;2023-01-10T15:52:50;6.60;99.90
4081;DHT22;2055;50.074;8.436;2023-01-10T15:55:46;6.60;99.90
4081;DHT22;2055;50.074;8.436;2023-01-10T15:58:31;6.60;99.90
4081;DHT22;2055;50.074;8.436;2023-01-10T16:01:00;6.60;99.90
4081;DHT22;2055;50.074;8.436;2023-01-10T16:03:36;6.50;99.90
4081;DHT22;2055;50.074;8.436;2023-01-10T16:06:04;6.50;99.90
4081;DHT22;2055;50.074;8.436;2023-01-10T16:08:36;6.50;99.90
4081;DHT22;2055;50.074;8.436;2023-01-10T16:11:06;6.50;99.90
4081;DHT22;2055;50.074;8.436;2023-01-10T16:13:33;6.50;99.90
4081;DHT22;2055;50.074;8.436;2023-01-10T16:16:02;6.50;99.90
4081;DHT22;2055;50.074;8.436;2023-01-10T16:18:32;6.50;99.90
4081;DHT22;2055;50.074;8.436;2023-01-10T16:21:00;6.50;99.90
4081;DHT22;2055;50.074;8.436;2023-01-10T16:23:33;6.50;99.90
4081;DHT22;2055;50.074;8.436;2023-01-10T16:26:02;6.40;99.90
4081;DHT22;2055;50.074;8.436;2023-01-10T16:28:29;6.40;99.90
4081;DHT22;2055;50.074;8.436;2023-01-10T16:31:00;6.40;99.90
4081;DHT22;2055;50.074;8.436;2023-01-10T16:33:26;6.30;99.90
4081;DHT22;2055;50.074;8.436;2023-01-10T16:35:54;6.30;99.90
4081;DHT22;2055;50.074;8.436;2023-01-10T16:38:21;6.30;99.90
4081;DHT22;2055;50.074;8.436;2023-01-10T16:40:52;6.30;99.90
4081;DHT22;2055;50.074;8.436;2023-01-10T16:43:19;6.20;99.90
4081;DHT22;2055;50.074;8.436;2023-01-10T16:45:53;6.20;99.90
4081;DHT22;2055;50.074;8.436;2023-01-10T16:48:19;6.20;99.90
4081;DHT22;2055;50.074;8.436;2023-01-10T16:50:46;6.20;99.90
4081;DHT22;2055;50.074;8.436;2023-01-10T16:53:14;6.20;99.90
4081;DHT22;2055;50.074;8.436;2023-01-10T16:55:51;6.20;99.90
4081;DHT22;2055;50.074;8.436;2023-01-10T16:58:18;6.20;99.90
4081;DHT22;2055;50.074;8.436;2023-01-10T17:00:47;6.20;99.90
4081;DHT22;2055;50.074;8.436;2023-01-10T17:03:19;6.20;99.90
4081;DHT22;2055;50.074;8.436;2023-01-10T17:05:45;6.30;99.90
4081;DHT22;2055;50.074;8.436;2023-01-10T17:08:15;6.20;99.90
4081;DHT22;2055;50.074;8.436;2023-01-10T17:10:42;6.20;99.90
4081;DHT22;2055;50.074;8.436;2023-01-10T17:13:08;6.20;99.90
4081;DHT22;2055;50.074;8.436;2023-01-10T17:15:35;6.20;99.90
4081;DHT22;2055;50.074;8.436;2023-01-10T17:18:01;6.20;99.90
4081;DHT22;2055;50.074;8.436;2023-01-10T17:20:27;6.20;99.90
4081;DHT22;2055;50.074;8.436;2023-01-10T17:22:55;6.20;99.90
4081;DHT22;2055;50.074;8.436;2023-01-10T17:25:21;6.20;99.90
4081;DHT22;2055;50.074;8.436;2023-01-10T17:27:46;6.20;99.90
4081;DHT22;2055;50.074;8.436;2023-01-10T17:30:12;6.20;99.90
4081;DHT22;2055;50.074;8.436;2023-01-10T17:32:38;6.10;99.90
4081;DHT22;2055;50.074;8.436;2023-01-10T17:35:04;6.20;99.90
4081;DHT22;2055;50.074;8.436;2023-01-10T17:37:30;6.10;99.90
4081;DHT22;2055;50.074;8.436;2023-01-10T17:39:56;6.10;99.90
4081;DHT22;2055;50.074;8.436;2023-01-10T17:42:21;6.10;99.90
4081;DHT22;2055;50.074;8.436;2023-01-10T17:44:47;6.10;99.90
4081;DHT22;2055;50.074;8.436;2023-01-10T17:47:13;6.10;99.90
4081;DHT22;2055;50.074;8.436;2023-01-10T17:49:38;6.10;99.90
4081;DHT22;2055;50.074;8.436;2023-01-10T17:52:06;6.20;99.90
4081;DHT22;2055;50.074;8.436;2023-01-10T17:54:32;6.20;99.90